aviador You're here:

LYBE Decoded Metar

BEOGRAD in SERBIA
Report Time2018-04-24 14:00:00
UTC Time2018-04-24 14:09:24
Flight Rules vfr VFR
Wind010° at 09 kt
W.Decomp.*RWY 30: 3.5 kt HW 8.3 kt RCW
W.Rank010° ranks 35
Current wind is above 010° avg. (5.6)
Visibility9999 m
Phenomena:N/A
Clouds:N/A
Expected CloudBase > 4,000 ft AGL from Temp-Dew spread
CeilingNone
Temp24°C (ISA +10)
Dew Point14°C (54% RH)
AAT22.1°C
QNH1016 hPa
Density Alt1,558 ft
Elevation325 ft
Report Wrong Elevation
Raw Report
METAR LYBE 241400Z 01009KT CAVOK 24/14 Q1016 NOSIG=

Extra information for LYBE:More info

Metar Taf Metar & Taf Last 4 Metars F.Rules Stats Wind Profile Meteogram Temp Stats Airport Information Weather charts Add Link Nearby VenuesMetar ALERT Operation Metar Decoded Social comments